createdAt,value
2017-09-28T00:01:15.004Z,14.04
2017-09-28T00:03:42.740Z,14.04
2017-09-28T00:06:10.454Z,14.07
2017-09-28T00:08:38.202Z,14.08
2017-09-28T00:11:05.892Z,14.05
2017-09-28T00:13:33.646Z,14.02
2017-09-28T00:16:01.349Z,14.01
2017-09-28T00:18:29.107Z,14.01
2017-09-28T00:20:56.805Z,13.99
2017-09-28T00:23:24.552Z,13.99
2017-09-28T00:25:52.194Z,13.99
2017-09-28T00:28:19.954Z,14.02
2017-09-28T00:30:47.642Z,14.04
2017-09-28T00:33:15.385Z,14.06
2017-09-28T00:35:43.136Z,14.09
2017-09-28T00:38:10.916Z,14.10
2017-09-28T00:40:38.607Z,14.11
2017-09-28T00:43:06.394Z,14.14
2017-09-28T00:45:34.182Z,14.15
2017-09-28T00:48:01.962Z,14.16
2017-09-28T00:50:29.677Z,14.14
2017-09-28T00:52:57.317Z,14.12
2017-09-28T00:55:25.078Z,14.13
2017-09-28T00:57:52.765Z,14.14
2017-09-28T01:00:20.526Z,14.12
2017-09-28T01:02:48.240Z,14.09
2017-09-28T01:05:16.002Z,14.08
2017-09-28T01:07:43.693Z,14.06
2017-09-28T01:10:11.437Z,14.02
2017-09-28T01:12:39.151Z,14.00
2017-09-28T01:15:06.885Z,13.98
2017-09-28T01:17:34.616Z,13.98
2017-09-28T01:20:02.370Z,13.95
2017-09-28T01:22:30.089Z,13.95
2017-09-28T01:24:57.841Z,13.96
2017-09-28T01:27:25.543Z,13.96
2017-09-28T01:29:53.291Z,13.95
2017-09-28T01:32:20.988Z,13.96
2017-09-28T01:34:48.725Z,13.92
2017-09-28T01:37:16.416Z,13.93
2017-09-28T01:39:44.187Z,13.94
2017-09-28T01:42:11.872Z,13.94
2017-09-28T01:44:39.668Z,13.94
2017-09-28T01:47:07.384Z,13.91
2017-09-28T01:49:35.123Z,13.88
2017-09-28T01:52:02.763Z,13.86
2017-09-28T01:54:30.501Z,13.86
2017-09-28T01:56:58.183Z,13.83
2017-09-28T01:59:25.921Z,13.82
2017-09-28T02:01:53.616Z,13.80
2017-09-28T02:04:21.381Z,13.81
2017-09-28T02:06:49.102Z,13.80
2017-09-28T02:09:16.846Z,13.83
2017-09-28T02:11:44.494Z,13.86
2017-09-28T02:14:12.236Z,13.87
2017-09-28T02:16:39.959Z,13.86
2017-09-28T02:19:07.725Z,13.86
2017-09-28T02:21:35.437Z,13.86
2017-09-28T02:24:03.176Z,13.84
2017-09-28T02:26:30.890Z,13.83
2017-09-28T02:28:58.679Z,13.79
2017-09-28T02:31:26.392Z,13.81
2017-09-28T02:33:54.105Z,13.78
2017-09-28T02:36:21.855Z,13.78
2017-09-28T02:38:49.539Z,13.76
2017-09-28T02:41:17.277Z,13.73
2017-09-28T02:43:45.036Z,13.70
2017-09-28T02:46:12.784Z,13.64
2017-09-28T02:48:40.478Z,13.62
2017-09-28T02:51:08.213Z,13.60
2017-09-28T02:53:35.909Z,13.56
2017-09-28T02:56:03.651Z,13.54
2017-09-28T02:58:31.360Z,13.55
2017-09-28T03:00:59.113Z,13.53
2017-09-28T03:03:26.811Z,13.51
2017-09-28T03:05:54.564Z,13.52
2017-09-28T03:08:22.270Z,13.50
2017-09-28T03:10:50.031Z,13.49
2017-09-28T03:13:17.720Z,13.50
2017-09-28T03:15:45.480Z,13.52
2017-09-28T03:18:13.179Z,13.52
2017-09-28T03:20:40.924Z,13.56
2017-09-28T03:23:08.613Z,13.60
2017-09-28T03:25:36.355Z,13.62
2017-09-28T03:28:04.050Z,13.62
2017-09-28T03:30:31.803Z,13.59
2017-09-28T03:32:59.498Z,13.57
2017-09-28T03:35:27.228Z,13.56
2017-09-28T03:37:54.932Z,13.55
2017-09-28T03:40:22.687Z,13.57
2017-09-28T03:42:50.390Z,13.57
2017-09-28T03:45:18.204Z,13.60
2017-09-28T03:47:45.942Z,13.63
2017-09-28T03:50:13.744Z,13.63
2017-09-28T03:52:41.437Z,13.63
2017-09-28T03:55:09.237Z,13.64
2017-09-28T03:57:36.927Z,13.66
2017-09-28T04:00:04.755Z,13.68
2017-09-28T04:02:32.472Z,13.70
2017-09-28T04:05:00.224Z,13.67
2017-09-28T04:07:27.915Z,13.64
2017-09-28T04:09:55.661Z,13.64
2017-09-28T04:12:23.403Z,13.61
2017-09-28T04:14:51.104Z,13.54
2017-09-28T04:17:18.860Z,13.51
2017-09-28T04:19:46.575Z,13.47
2017-09-28T04:22:14.314Z,13.47
2017-09-28T04:24:42.029Z,13.49
2017-09-28T04:27:09.806Z,13.50
2017-09-28T04:29:37.932Z,13.51
2017-09-28T04:32:05.686Z,13.53
2017-09-28T04:34:33.402Z,13.55
2017-09-28T04:37:01.164Z,13.59
2017-09-28T04:39:28.888Z,13.59
2017-09-28T04:41:56.631Z,13.61
2017-09-28T04:44:24.383Z,13.62
2017-09-28T04:46:52.125Z,13.62
2017-09-28T04:49:19.783Z,13.62
2017-09-28T04:51:47.469Z,13.62
2017-09-28T04:54:15.117Z,13.61
2017-09-28T04:56:42.813Z,13.59
2017-09-28T04:59:10.447Z,13.56
2017-09-28T05:01:38.135Z,13.53
2017-09-28T05:04:05.791Z,13.51
2017-09-28T05:06:33.497Z,13.49
2017-09-28T05:09:01.157Z,13.46
2017-09-28T05:11:28.837Z,13.42
2017-09-28T05:13:56.487Z,13.44
2017-09-28T05:16:24.187Z,13.46
2017-09-28T05:18:51.837Z,13.47
2017-09-28T05:21:19.538Z,13.46
2017-09-28T05:23:47.268Z,13.48
2017-09-28T05:26:15.019Z,13.48
2017-09-28T05:28:42.747Z,13.52
2017-09-28T05:31:10.508Z,13.58
2017-09-28T05:33:38.230Z,13.66
2017-09-28T05:36:06.028Z,13.72
2017-09-28T05:38:33.747Z,13.79
2017-09-28T05:41:01.552Z,13.84
2017-09-28T05:43:29.321Z,13.92
2017-09-28T05:45:57.109Z,13.99
2017-09-28T05:48:24.837Z,14.03
2017-09-28T05:50:52.572Z,14.06
2017-09-28T05:53:20.327Z,14.10
2017-09-28T05:55:48.039Z,14.15
2017-09-28T05:58:15.776Z,14.13
2017-09-28T06:00:43.499Z,14.09
2017-09-28T06:03:11.205Z,14.04
2017-09-28T06:05:38.934Z,14.01
2017-09-28T06:08:06.665Z,14.01
2017-09-28T06:10:34.379Z,13.99
2017-09-28T06:13:02.152Z,13.99
2017-09-28T06:15:29.878Z,13.99
2017-09-28T06:17:58.001Z,14.02
2017-09-28T06:20:25.703Z,14.03
2017-09-28T06:22:53.456Z,14.02
2017-09-28T06:25:21.156Z,14.04
2017-09-28T06:27:48.903Z,14.09
2017-09-28T06:30:16.631Z,14.10
2017-09-28T06:32:44.377Z,14.16
2017-09-28T06:35:12.129Z,14.20
2017-09-28T06:37:39.823Z,14.23
2017-09-28T06:40:07.522Z,14.22
2017-09-28T06:42:35.290Z,14.21
2017-09-28T06:45:03.058Z,14.26
2017-09-28T06:47:30.878Z,14.33
2017-09-28T06:49:58.583Z,14.41
2017-09-28T06:52:26.324Z,14.50
2017-09-28T06:54:54.034Z,14.65
2017-09-28T06:57:21.714Z,14.70
2017-09-28T06:59:49.417Z,14.75
2017-09-28T07:02:17.176Z,14.70
2017-09-28T07:04:44.881Z,14.63
2017-09-28T07:07:12.641Z,14.63
2017-09-28T07:09:40.380Z,14.57
2017-09-28T07:12:08.138Z,14.60
2017-09-28T07:14:35.844Z,14.62
2017-09-28T07:17:03.601Z,14.62
2017-09-28T07:19:31.312Z,14.57
2017-09-28T07:21:59.069Z,14.54
2017-09-28T07:24:26.781Z,14.57
2017-09-28T07:26:54.544Z,14.54
2017-09-28T07:29:22.252Z,14.53
2017-09-28T07:31:49.999Z,14.62
2017-09-28T07:42:45.017Z,14.78
2017-09-28T07:45:13.944Z,14.86
2017-09-28T07:47:41.669Z,14.91
2017-09-28T07:50:09.518Z,14.99
2017-09-28T07:52:37.270Z,14.90
2017-09-28T07:55:05.019Z,14.89
2017-09-28T07:57:32.765Z,14.94
2017-09-28T08:00:00.486Z,15.00
2017-09-28T08:02:28.255Z,14.93
2017-09-28T08:04:55.960Z,14.87
2017-09-28T08:07:23.698Z,14.90
2017-09-28T08:09:51.399Z,14.94
2017-09-28T08:12:19.216Z,14.92
2017-09-28T08:14:46.887Z,14.91
2017-09-28T08:17:14.696Z,14.99
2017-09-28T08:19:42.451Z,15.13
2017-09-28T08:22:10.215Z,15.23
2017-09-28T08:24:37.983Z,15.22
2017-09-28T08:27:05.688Z,15.23
2017-09-28T08:29:33.474Z,15.31
2017-09-28T08:32:01.178Z,15.20
2017-09-28T08:34:28.954Z,15.21
2017-09-28T08:36:56.664Z,15.20
2017-09-28T08:39:24.425Z,15.33
2017-09-28T08:41:52.143Z,15.48
2017-09-28T08:44:19.945Z,15.61
2017-09-28T08:46:47.645Z,15.63
2017-09-28T08:49:22.228Z,15.65
2017-09-28T08:51:57.875Z,15.64
2017-09-28T08:54:39.037Z,15.78
2017-09-28T08:57:29.783Z,15.93
2017-09-28T08:59:57.462Z,16.04
2017-09-28T09:02:25.156Z,15.89
2017-09-28T09:04:59.540Z,15.82
2017-09-28T09:07:27.526Z,15.92
2017-09-28T09:09:55.206Z,16.13
2017-09-28T09:12:22.838Z,16.24
2017-09-28T09:14:50.542Z,16.25
2017-09-28T09:17:18.179Z,16.40
2017-09-28T09:19:50.356Z,16.38
2017-09-28T09:22:18.393Z,16.28
2017-09-28T09:24:46.137Z,16.26
2017-09-28T09:27:13.861Z,16.38
2017-09-28T09:29:41.615Z,16.29
2017-09-28T09:32:09.370Z,16.38
2017-09-28T09:34:37.182Z,16.35
2017-09-28T09:37:04.895Z,16.45
2017-09-28T09:39:32.650Z,16.49
2017-09-28T09:42:00.370Z,16.45
2017-09-28T09:44:28.061Z,16.50
2017-09-28T09:46:55.704Z,16.64
2017-09-28T09:49:23.408Z,16.77
2017-09-28T09:51:51.068Z,16.76
2017-09-28T09:54:18.901Z,16.72
2017-09-28T09:56:46.620Z,16.81
2017-09-28T09:59:14.383Z,16.81
2017-09-28T10:01:42.105Z,16.95
2017-09-28T10:04:09.840Z,16.89
2017-09-28T10:06:43.161Z,17.07
2017-09-28T10:09:14.345Z,17.30
2017-09-28T10:11:45.540Z,17.40
2017-09-28T10:14:15.681Z,17.42
2017-09-28T10:16:43.376Z,17.63
2017-09-28T10:19:11.149Z,17.82
2017-09-28T10:21:38.879Z,18.07
2017-09-28T10:24:06.633Z,17.88
2017-09-28T10:26:34.343Z,17.77
2017-09-28T10:29:02.119Z,17.70
2017-09-28T10:31:29.833Z,17.84
2017-09-28T10:33:57.591Z,18.12
2017-09-28T10:36:25.314Z,18.46
2017-09-28T10:38:53.061Z,18.60
2017-09-28T10:41:20.762Z,19.01
2017-09-28T10:43:52.880Z,19.14
2017-09-28T10:46:27.528Z,18.84
2017-09-28T10:48:55.239Z,18.73
2017-09-28T10:51:22.929Z,18.22
2017-09-28T10:53:50.620Z,17.91
2017-09-28T10:56:18.306Z,18.12
2017-09-28T10:58:45.953Z,18.31
2017-09-28T11:01:13.647Z,18.68
2017-09-28T11:03:45.994Z,18.83
2017-09-28T11:06:14.046Z,18.66
2017-09-28T11:08:41.699Z,18.49
2017-09-28T11:11:09.413Z,18.20
2017-09-28T11:13:37.055Z,18.28
2017-09-28T11:16:04.805Z,18.25
2017-09-28T11:18:32.465Z,18.24
2017-09-28T11:21:00.179Z,18.24
2017-09-28T11:23:27.809Z,18.32
2017-09-28T11:25:55.514Z,18.71
2017-09-28T11:28:23.154Z,19.05
2017-09-28T11:31:24.329Z,19.30
2017-09-28T11:34:08.756Z,19.29
2017-09-28T11:45:51.978Z,18.27
2017-09-28T12:02:57.639Z,17.65
2017-09-28T12:05:25.373Z,17.60
2017-09-28T12:07:53.033Z,17.60
2017-09-28T12:10:20.772Z,17.66
2017-09-28T12:12:48.474Z,17.70
2017-09-28T12:15:16.221Z,17.78
2017-09-28T12:17:43.933Z,17.87
2017-09-28T12:20:11.686Z,18.01
2017-09-28T12:22:39.400Z,18.06
2017-09-28T12:25:07.106Z,18.19
2017-09-28T12:27:34.792Z,18.27
2017-09-28T12:30:02.586Z,18.34
2017-09-28T12:32:30.293Z,18.42
2017-09-28T12:34:58.035Z,18.43
2017-09-28T12:37:25.723Z,18.62
2017-09-28T12:39:53.423Z,18.63
2017-09-28T12:42:21.143Z,18.70
2017-09-28T12:44:48.971Z,18.71
2017-09-28T12:47:16.724Z,18.85
2017-09-28T12:49:44.445Z,18.79
2017-09-28T12:52:12.204Z,18.76
2017-09-28T12:54:39.933Z,18.75
2017-09-28T12:57:07.725Z,18.68
2017-09-28T12:59:35.442Z,18.65
2017-09-28T13:02:03.149Z,18.51
2017-09-28T13:04:30.868Z,18.49
2017-09-28T13:06:58.984Z,18.49
2017-09-28T13:15:10.211Z,18.56
2017-09-28T13:17:37.874Z,18.59
2017-09-28T13:20:05.604Z,18.68
2017-09-28T13:22:33.397Z,18.64
2017-09-28T13:25:01.091Z,18.61
2017-09-28T13:27:28.824Z,18.52
2017-09-28T13:29:56.516Z,18.49
2017-09-28T13:32:24.245Z,18.48
2017-09-28T13:34:51.940Z,18.46
2017-09-28T13:37:19.687Z,18.53
2017-09-28T13:39:47.398Z,18.52
2017-09-28T13:42:15.089Z,18.48
2017-09-28T13:44:42.831Z,18.46
2017-09-28T13:47:10.599Z,18.52
2017-09-28T13:49:38.269Z,18.59
2017-09-28T13:52:05.962Z,18.61
2017-09-28T13:54:37.163Z,18.70
2017-09-28T13:57:04.998Z,18.72
2017-09-28T13:59:33.781Z,18.71
2017-09-28T14:02:03.239Z,18.67
2017-09-28T14:04:31.116Z,18.57
2017-09-28T14:06:58.807Z,18.47
2017-09-28T14:09:26.521Z,18.50
2017-09-28T14:11:54.283Z,18.48
2017-09-28T14:14:22.017Z,18.42
2017-09-28T14:16:49.711Z,18.37
2017-09-28T14:19:17.414Z,18.37
2017-09-28T14:21:45.164Z,18.39
2017-09-28T14:24:12.829Z,18.44
2017-09-28T14:26:40.512Z,18.50
2017-09-28T14:29:08.243Z,18.46
2017-09-28T14:31:35.989Z,18.38
2017-09-28T14:34:03.729Z,18.28
2017-09-28T14:36:31.412Z,18.20
2017-09-28T14:38:59.138Z,18.16
2017-09-28T14:41:26.817Z,18.10
2017-09-28T14:43:54.589Z,18.08
2017-09-28T14:46:22.317Z,17.98
2017-09-28T14:48:50.018Z,17.92
2017-09-28T14:51:17.701Z,17.86
2017-09-28T14:53:45.413Z,17.83
2017-09-28T14:56:13.348Z,17.82
2017-09-28T14:58:41.048Z,17.79
2017-09-28T15:01:08.758Z,17.79
2017-09-28T15:03:36.457Z,17.72
2017-09-28T15:06:04.157Z,17.66
2017-09-28T15:08:31.839Z,17.58
2017-09-28T15:10:59.667Z,17.54
2017-09-28T15:13:27.393Z,17.54
2017-09-28T15:15:59.439Z,17.50
2017-09-28T15:18:27.121Z,17.48
2017-09-28T15:21:03.209Z,17.48
2017-09-28T15:23:35.295Z,17.47
2017-09-28T15:26:07.549Z,17.44
2017-09-28T15:28:35.212Z,17.44
2017-09-28T15:31:07.413Z,17.43
2017-09-28T15:33:35.098Z,17.44
2017-09-28T15:36:02.768Z,17.44
2017-09-28T15:38:30.465Z,17.45
2017-09-28T15:40:58.150Z,17.43
2017-09-28T15:43:25.828Z,17.41
2017-09-28T15:45:53.770Z,17.40
2017-09-28T15:48:21.541Z,17.39
2017-09-28T15:50:49.168Z,17.38
2017-09-28T15:53:16.916Z,17.37
2017-09-28T15:55:44.550Z,17.36
2017-09-28T15:58:12.235Z,17.35
2017-09-28T16:00:39.938Z,17.35
2017-09-28T16:03:07.678Z,17.31
2017-09-28T16:05:35.389Z,17.31
2017-09-28T16:08:03.063Z,17.26
2017-09-28T16:10:30.753Z,17.20
2017-09-28T16:12:58.446Z,17.19
2017-09-28T16:15:26.087Z,17.14
2017-09-28T16:17:53.777Z,17.11
2017-09-28T16:20:21.428Z,17.07
2017-09-28T16:22:49.172Z,17.04
2017-09-28T16:25:16.919Z,16.99
2017-09-28T16:27:44.632Z,16.96
2017-09-28T16:30:12.272Z,16.92
2017-09-28T16:32:39.959Z,16.88
2017-09-28T16:35:07.673Z,16.84
2017-09-28T16:37:35.440Z,16.82
2017-09-28T16:40:03.146Z,16.78
2017-09-28T16:42:30.899Z,16.72
2017-09-28T16:44:58.660Z,16.64
2017-09-28T16:47:26.413Z,16.60
2017-09-28T16:49:54.129Z,16.54
2017-09-28T16:52:22.024Z,16.52
2017-09-28T16:54:49.751Z,16.49
2017-09-28T16:57:17.509Z,16.44
2017-09-28T16:59:45.133Z,16.40
2017-09-28T17:02:12.833Z,16.35
2017-09-28T17:04:40.602Z,16.32
2017-09-28T17:07:08.307Z,16.27
2017-09-28T17:09:36.067Z,16.23
2017-09-28T17:12:03.782Z,16.16
2017-09-28T17:14:31.545Z,16.13
2017-09-28T17:16:59.252Z,16.11
2017-09-28T17:19:27.030Z,16.09
2017-09-28T17:21:54.725Z,16.10
2017-09-28T17:24:22.480Z,16.13
2017-09-28T17:26:50.186Z,16.13
2017-09-28T17:29:17.916Z,16.15
2017-09-28T17:31:45.624Z,16.14
2017-09-28T17:34:13.382Z,16.13
2017-09-28T17:36:41.109Z,16.10
2017-09-28T17:39:08.893Z,16.06
2017-09-28T17:41:36.622Z,16.05
2017-09-28T17:44:04.433Z,16.02
2017-09-28T17:46:32.135Z,16.02
2017-09-28T17:49:00.123Z,16.00
2017-09-28T17:51:27.822Z,15.96
2017-09-28T17:53:55.622Z,15.96
2017-09-28T17:56:23.345Z,15.97
2017-09-28T17:58:51.113Z,15.93
2017-09-28T18:01:18.801Z,15.90
2017-09-28T18:03:46.541Z,15.92
2017-09-28T18:06:14.275Z,15.92
2017-09-28T18:08:42.094Z,15.94
2017-09-28T18:11:09.828Z,15.94
2017-09-28T18:13:37.589Z,15.95
2017-09-28T18:16:05.294Z,15.98
2017-09-28T18:18:33.966Z,15.96
2017-09-28T18:21:01.709Z,15.95
2017-09-28T18:23:29.474Z,15.96
2017-09-28T18:25:57.203Z,15.94
2017-09-28T18:28:24.946Z,15.92
2017-09-28T18:30:52.668Z,15.92
2017-09-28T18:33:20.417Z,15.91
2017-09-28T18:35:48.131Z,15.90
2017-09-28T18:38:16.045Z,15.92
2017-09-28T18:40:43.777Z,15.94
2017-09-28T18:43:11.652Z,15.93
2017-09-28T18:45:39.506Z,15.90
2017-09-28T18:48:07.314Z,15.88
2017-09-28T18:50:35.139Z,15.86
2017-09-28T18:53:02.914Z,15.85
2017-09-28T18:55:30.834Z,15.83
2017-09-28T18:57:58.565Z,15.81
2017-09-28T19:00:26.325Z,15.82
2017-09-28T19:02:54.056Z,15.80
2017-09-28T19:05:21.876Z,15.81
2017-09-28T19:07:49.602Z,15.80
2017-09-28T19:10:17.359Z,15.80
2017-09-28T19:12:45.084Z,15.77
2017-09-28T19:15:12.835Z,15.75
2017-09-28T19:17:40.532Z,15.72
2017-09-28T19:20:08.300Z,15.69
2017-09-28T19:22:36.008Z,15.67
2017-09-28T19:25:03.809Z,15.65
2017-09-28T19:27:31.524Z,15.65
2017-09-28T19:29:59.210Z,15.64
2017-09-28T19:32:26.921Z,15.62
2017-09-28T19:34:54.674Z,15.59
2017-09-28T19:37:22.406Z,15.58
2017-09-28T19:39:50.149Z,15.57
2017-09-28T19:42:17.899Z,15.58
2017-09-28T19:44:45.602Z,15.56
2017-09-28T19:47:13.315Z,15.56
2017-09-28T19:49:41.101Z,15.56
2017-09-28T19:52:08.826Z,15.56
2017-09-28T19:54:36.638Z,15.54
2017-09-28T19:57:04.353Z,15.51
2017-09-28T19:59:32.103Z,15.49
2017-09-28T20:01:59.806Z,15.49
2017-09-28T20:04:27.580Z,15.49
2017-09-28T20:06:55.311Z,15.50
2017-09-28T20:09:23.101Z,15.50
2017-09-28T20:11:50.802Z,15.51
2017-09-28T20:14:18.569Z,15.52
2017-09-28T20:16:46.342Z,15.53
2017-09-28T20:19:14.158Z,15.51
2017-09-28T20:21:41.919Z,15.49
2017-09-28T20:24:09.653Z,15.45
2017-09-28T20:26:37.443Z,15.47
2017-09-28T20:29:05.170Z,15.43
2017-09-28T20:31:32.936Z,15.49
2017-09-28T20:34:00.649Z,15.50
2017-09-28T20:36:28.410Z,15.48
2017-09-28T20:38:56.138Z,15.45
2017-09-28T20:41:23.912Z,15.43
2017-09-28T20:43:51.636Z,15.41
2017-09-28T20:46:19.435Z,15.42
2017-09-28T20:48:47.144Z,15.41
2017-09-28T20:51:14.925Z,15.42
2017-09-28T20:53:42.638Z,15.41
2017-09-28T20:56:10.393Z,15.40
2017-09-28T20:58:38.126Z,15.40
2017-09-28T21:01:05.887Z,15.39
2017-09-28T21:03:33.580Z,15.37
2017-09-28T21:06:01.328Z,15.34
2017-09-28T21:08:28.993Z,15.34
2017-09-28T21:10:56.751Z,15.31
2017-09-28T21:13:24.467Z,15.30
2017-09-28T21:15:52.214Z,15.29
2017-09-28T21:18:19.917Z,15.22
2017-09-28T21:20:47.694Z,15.21
2017-09-28T21:23:15.404Z,15.20
2017-09-28T21:25:43.156Z,15.20
2017-09-28T21:28:10.851Z,15.19
2017-09-28T21:30:38.605Z,15.20
2017-09-28T21:33:06.308Z,15.19
2017-09-28T21:35:34.054Z,15.17
2017-09-28T21:38:01.826Z,15.16
2017-09-28T21:40:29.591Z,15.14
2017-09-28T21:42:57.287Z,15.14
2017-09-28T21:45:25.117Z,15.14
2017-09-28T21:47:52.825Z,15.14
2017-09-28T21:50:20.611Z,15.13
2017-09-28T21:52:48.325Z,15.11
2017-09-28T21:55:16.074Z,15.10
2017-09-28T21:57:43.799Z,15.12
2017-09-28T22:00:11.551Z,15.14
2017-09-28T22:02:39.299Z,15.14
2017-09-28T22:05:07.006Z,15.17
2017-09-28T22:07:34.753Z,15.20
2017-09-28T22:10:02.400Z,15.23
2017-09-28T22:12:30.142Z,15.22
2017-09-28T22:14:57.849Z,15.25
2017-09-28T22:17:25.596Z,15.26
2017-09-28T22:19:53.300Z,15.26
2017-09-28T22:22:21.058Z,15.26
2017-09-28T22:24:48.767Z,15.27
2017-09-28T22:27:16.519Z,15.30
2017-09-28T22:29:44.243Z,15.30
2017-09-28T22:32:11.995Z,15.29
2017-09-28T22:34:39.710Z,15.30
2017-09-28T22:37:07.424Z,15.31
2017-09-28T22:39:35.121Z,15.33
2017-09-28T22:42:02.882Z,15.32
2017-09-28T22:44:30.636Z,15.29
2017-09-28T22:46:58.388Z,15.26
2017-09-28T22:49:26.083Z,15.24
2017-09-28T22:51:53.834Z,15.23
2017-09-28T22:54:21.522Z,15.20
2017-09-28T22:56:49.271Z,15.19
2017-09-28T22:59:16.970Z,15.17
2017-09-28T23:01:44.748Z,15.14
2017-09-28T23:04:12.486Z,15.15
2017-09-28T23:06:40.282Z,15.16
2017-09-28T23:09:07.931Z,15.17
2017-09-28T23:11:35.695Z,15.18
2017-09-28T23:14:03.389Z,15.18
2017-09-28T23:16:31.132Z,15.20
2017-09-28T23:18:58.840Z,15.19
2017-09-28T23:21:26.577Z,15.20
2017-09-28T23:23:54.300Z,15.19
2017-09-28T23:26:22.061Z,15.18
2017-09-28T23:28:49.762Z,15.14
2017-09-28T23:31:17.508Z,15.11
2017-09-28T23:33:45.212Z,15.07
2017-09-28T23:36:12.980Z,15.05
2017-09-28T23:38:40.731Z,15.05
2017-09-28T23:41:08.482Z,15.07
2017-09-28T23:43:36.180Z,15.08
2017-09-28T23:46:03.935Z,15.08
2017-09-28T23:48:31.683Z,15.07
2017-09-28T23:50:59.371Z,15.06
2017-09-28T23:53:27.116Z,15.00
2017-09-28T23:55:54.775Z,15.00
2017-09-28T23:58:22.608Z,15.00
